Time;durP1;ratioP1;P1;durP2;ratioP2;P2;SDS_P1;SDS_P2;PMS_P1;PMS_P2;Temp;Humidity;BMP_temperature;BMP_pressure;BME280_temperature;BME280_humidity;BME280_pressure;Samples;Min_cycle;Max_cycle;Signal;HPM_P1;HPM_P2
2022/11/28 00:01:22;;;;;;;8.85;5.47;;;5.60;83.90;;;;;;5033254;28;20402;-58
2022/11/28 00:03:48;;;;;;;6.63;5.22;;;5.60;83.90;;;;;;5033668;28;20129;-58
2022/11/28 00:06:14;;;;;;;7.07;5.32;;;5.60;83.80;;;;;;5031693;28;20100;-57
2022/11/28 00:08:40;;;;;;;7.53;5.80;;;5.60;83.60;;;;;;5031443;28;20387;-57
2022/11/28 00:11:08;;;;;;;7.60;5.38;;;5.60;83.50;;;;;;5033137;28;20108;-58
2022/11/28 00:13:35;;;;;;;6.47;5.30;;;5.60;83.50;;;;;;5033270;28;20017;-56
2022/11/28 00:16:03;;;;;;;7.38;5.43;;;5.60;83.50;;;;;;5030682;28;20484;-58
2022/11/28 00:18:29;;;;;;;7.57;5.57;;;5.60;83.50;;;;;;5031921;28;20057;-58
2022/11/28 00:21:03;;;;;;;7.00;6.00;;;5.50;83.60;;;;;;5015556;28;20072;-58
2022/11/28 00:23:29;;;;;;;8.50;5.68;;;5.50;83.70;;;;;;5032929;28;20029;-56
2022/11/28 00:26:00;;;;;;;6.85;5.00;;;5.50;83.80;;;;;;5032082;28;20029;-58
2022/11/28 00:28:26;;;;;;;7.43;5.45;;;5.50;83.90;;;;;;5031405;28;20116;-57
2022/11/28 00:30:51;;;;;;;7.53;5.05;;;5.50;83.90;;;;;;5033020;28;20113;-58
2022/11/28 00:33:17;;;;;;;7.07;5.53;;;5.50;84.00;;;;;;5032923;28;20100;-58
2022/11/28 00:35:43;;;;;;;7.70;5.22;;;5.50;83.90;;;;;;5031487;28;20049;-57
2022/11/28 00:38:08;;;;;;;7.43;5.10;;;5.50;83.80;;;;;;5031742;28;20426;-58
2022/11/28 00:40:34;;;;;;;6.25;5.22;;;5.50;83.70;;;;;;5032981;28;20407;-58
2022/11/28 00:43:00;;;;;;;8.32;5.47;;;5.60;83.80;;;;;;5032549;28;20108;-58
2022/11/28 00:45:25;;;;;;;7.95;5.55;;;5.60;83.70;;;;;;5032298;28;20503;-58
2022/11/28 00:47:51;;;;;;;6.57;4.70;;;5.60;83.50;;;;;;5031779;28;20033;-57
2022/11/28 00:50:16;;;;;;;6.28;5.13;;;5.60;83.40;;;;;;5032049;28;20033;-57
2022/11/28 00:52:42;;;;;;;7.38;5.70;;;5.60;83.50;;;;;;5032352;28;20021;-57
2022/11/28 00:55:08;;;;;;;8.18;5.68;;;5.60;83.50;;;;;;5031904;28;20025;-57
2022/11/28 00:57:33;;;;;;;7.10;4.78;;;5.60;83.40;;;;;;5031143;28;20059;-58
2022/11/28 00:59:59;;;;;;;7.30;5.28;;;5.60;83.40;;;;;;5032218;28;20043;-57
2022/11/28 01:02:25;;;;;;;6.80;5.00;;;5.60;83.40;;;;;;5032369;28;20047;-58
2022/11/28 01:04:50;;;;;;;7.03;4.97;;;5.60;83.40;;;;;;5031768;28;20030;-56
2022/11/28 01:07:16;;;;;;;7.82;5.40;;;5.60;83.30;;;;;;5029918;28;20026;-58
2022/11/28 01:09:42;;;;;;;6.72;5.25;;;5.60;83.20;;;;;;5032249;28;20032;-58
2022/11/28 01:12:08;;;;;;;7.45;5.22;;;5.60;83.20;;;;;;5032097;28;20377;-58
2022/11/28 01:14:34;;;;;;;6.57;5.18;;;5.60;83.20;;;;;;5032424;28;20062;-57
2022/11/28 01:16:59;;;;;;;7.38;5.53;;;5.60;83.10;;;;;;5030881;28;20478;-57
2022/11/28 01:19:25;;;;;;;8.70;5.80;;;5.60;83.30;;;;;;5032266;28;20029;-56
2022/11/28 01:21:50;;;;;;;6.32;4.90;;;5.60;83.30;;;;;;5032134;28;20053;-57
2022/11/28 01:24:16;;;;;;;9.05;5.50;;;5.50;83.20;;;;;;5032210;28;20424;-58
2022/11/28 01:26:42;;;;;;;8.23;5.55;;;5.60;83.30;;;;;;5029975;28;20088;-58
2022/11/28 01:29:09;;;;;;;7.03;5.22;;;5.60;83.40;;;;;;5031215;28;20021;-57
2022/11/28 01:31:35;;;;;;;7.53;5.85;;;5.60;83.30;;;;;;5031930;28;20022;-58
2022/11/28 01:34:01;;;;;;;7.75;5.63;;;5.60;83.10;;;;;;5032527;28;20017;-58
2022/11/28 01:36:27;;;;;;;6.97;5.20;;;5.60;83.10;;;;;;5029553;28;20453;-58
2022/11/28 01:38:53;;;;;;;5.65;4.68;;;5.60;83.10;;;;;;5031842;28;20035;-58
2022/11/28 01:41:23;;;;;;;5.85;4.78;;;5.60;83.10;;;;;;5031896;28;20108;-58
2022/11/28 01:44:03;;;;;;;8.07;5.28;;;5.60;83.00;;;;;;5031264;28;20451;-57
2022/11/28 01:46:29;;;;;;;6.75;5.00;;;5.60;82.90;;;;;;5031154;28;20033;-58
2022/11/28 01:48:59;;;;;;;6.95;4.88;;;5.60;83.00;;;;;;5032214;28;20034;-58
2022/11/28 01:51:25;;;;;;;7.43;5.38;;;5.50;83.00;;;;;;5029497;28;20072;-57
2022/11/28 01:53:51;;;;;;;7.05;4.57;;;5.60;82.90;;;;;;5031035;28;20030;-58
2022/11/28 01:56:22;;;;;;;6.18;4.80;;;5.50;82.90;;;;;;5031203;28;20048;-58
2022/11/28 01:58:55;;;;;;;6.28;4.82;;;5.60;83.00;;;;;;5030743;28;20374;-58
2022/11/28 02:01:23;;;;;;;7.80;5.13;;;5.60;82.80;;;;;;5032055;28;20091;-57
2022/11/28 02:03:50;;;;;;;6.70;4.90;;;5.60;82.80;;;;;;5031146;28;20064;-58
2022/11/28 02:06:20;;;;;;;6.65;4.90;;;5.60;82.90;;;;;;5020144;28;20058;-58
2022/11/28 02:08:53;;;;;;;6.47;4.90;;;5.70;82.80;;;;;;5028476;28;20563;-58
2022/11/28 02:11:50;;;;;;;5.88;4.97;;;5.60;82.80;;;;;;5031728;28;20025;-57
2022/11/28 02:14:40;;;;;;;6.18;4.32;;;5.60;82.80;;;;;;5029885;28;20025;-58
2022/11/28 02:17:42;;;;;;;5.85;4.85;;;5.60;82.70;;;;;;5034724;28;20035;-58
2022/11/28 02:20:45;;;;;;;5.80;4.47;;;5.60;82.70;;;;;;5035057;28;20556;-58
2022/11/28 02:23:41;;;;;;;6.63;4.85;;;5.60;82.80;;;;;;5034524;28;20025;-58
2022/11/28 02:26:25;;;;;;;8.13;5.80;;;5.60;82.60;;;;;;5027500;28;20021;-58
2022/11/28 02:28:56;;;;;;;6.80;5.43;;;5.50;82.60;;;;;;5034775;28;20103;-57
2022/11/28 02:31:50;;;;;;;6.55;4.90;;;5.50;82.80;;;;;;5034685;28;20048;-57
2022/11/28 02:34:42;;;;;;;7.30;4.95;;;5.50;82.80;;;;;;5034371;28;20026;-58
2022/11/28 02:37:21;;;;;;;6.63;4.97;;;5.50;82.90;;;;;;5007725;28;20037;-57
2022/11/28 02:40:16;;;;;;;6.78;5.22;;;5.50;83.00;;;;;;5034769;28;20029;-58
2022/11/28 02:43:00;;;;;;;5.63;4.50;;;5.50;82.80;;;;;;5034223;28;20032;-58
2022/11/28 02:45:29;;;;;;;5.70;4.45;;;5.40;83.00;;;;;;5022590;28;20484;-58
2022/11/28 02:48:06;;;;;;;6.80;4.47;;;5.40;83.10;;;;;;5033628;28;20025;-58
2022/11/28 02:50:39;;;;;;;6.03;4.68;;;5.50;83.20;;;;;;5034502;28;20022;-57
2022/11/28 02:53:18;;;;;;;6.85;4.68;;;5.50;83.20;;;;;;5031810;28;20448;-58
2022/11/28 02:55:44;;;;;;;6.18;4.47;;;5.50;83.10;;;;;;5035009;28;20481;-58
2022/11/28 02:58:11;;;;;;;6.10;4.18;;;5.50;83.20;;;;;;5033765;28;20087;-57
2022/11/28 03:00:38;;;;;;;5.97;4.50;;;5.50;83.00;;;;;;5033875;28;20028;-57
2022/11/28 03:03:38;;;;;;;5.47;4.40;;;5.50;82.90;;;;;;5026629;28;20051;-58
2022/11/28 03:06:35;;;;;;;5.32;4.32;;;5.50;82.80;;;;;;5025951;28;20485;-57
2022/11/28 03:09:35;;;;;;;4.90;4.00;;;5.50;82.60;;;;;;5012570;28;20066;-58
2022/11/28 03:12:21;;;;;;;4.85;3.92;;;5.50;82.70;;;;;;5033002;28;20033;-58
2022/11/28 03:14:56;;;;;;;4.88;3.85;;;5.60;82.60;;;;;;5032842;28;20091;-58
2022/11/28 03:17:43;;;;;;;4.30;3.60;;;5.60;82.50;;;;;;5033078;28;20553;-58
2022/11/28 03:20:35;;;;;;;5.38;3.97;;;5.60;82.40;;;;;;5033287;28;20440;-58
2022/11/28 03:23:15;;;;;;;4.90;3.65;;;5.60;82.00;;;;;;5030075;28;20046;-58
2022/11/28 03:25:55;;;;;;;3.50;3.15;;;5.60;82.00;;;;;;5034094;28;20029;-58
2022/11/28 03:28:28;;;;;;;4.95;4.28;;;5.60;82.00;;;;;;5032975;28;20068;-58
2022/11/28 03:31:01;;;;;;;4.20;3.80;;;5.60;82.00;;;;;;5033002;28;20036;-56
2022/11/28 03:33:32;;;;;;;5.03;4.28;;;5.60;82.00;;;;;;5033986;28;20019;-58
2022/11/28 03:36:30;;;;;;;4.72;3.78;;;5.50;81.90;;;;;;5033937;28;20041;-58
2022/11/28 03:39:05;;;;;;;5.53;4.13;;;5.50;82.10;;;;;;5032391;28;20112;-58
2022/11/28 03:41:36;;;;;;;6.57;4.65;;;5.50;82.20;;;;;;5033319;28;20476;-57
2022/11/28 03:44:02;;;;;;;;;;;5.50;82.30;;;;;;5033998;28;20035;-58
2022/11/28 03:46:40;;;;;;;4.85;4.13;;;5.40;82.00;;;;;;5033002;28;20008;-58
2022/11/28 03:49:08;;;;;;;5.93;4.43;;;5.40;82.40;;;;;;5033737;28;20109;-58
2022/11/28 03:52:02;;;;;;;5.65;4.55;;;5.40;82.50;;;;;;5033490;28;20028;-58
2022/11/28 03:54:40;;;;;;;5.95;4.32;;;5.40;82.30;;;;;;5031536;28;20033;-57
2022/11/28 03:57:16;;;;;;;5.10;4.18;;;5.40;82.50;;;;;;5032672;28;20108;-58
2022/11/28 03:59:50;;;;;;;7.38;5.03;;;5.40;82.70;;;;;;5032948;28;20026;-57
2022/11/28 04:02:37;;;;;;;5.10;4.10;;;5.40;82.70;;;;;;5033386;28;20075;-57
2022/11/28 04:05:17;;;;;;;5.80;4.63;;;5.40;82.70;;;;;;5033533;28;20025;-56
2022/11/28 04:07:45;;;;;;;6.55;4.38;;;5.30;82.60;;;;;;5032509;28;20022;-58
2022/11/28 04:10:16;;;;;;;6.40;4.45;;;5.30;82.60;;;;;;5028646;28;20025;-57
2022/11/28 04:13:11;;;;;;;5.38;4.38;;;5.30;82.90;;;;;;5033419;28;20029;-57
2022/11/28 04:16:20;;;;;;;4.53;3.72;;;5.30;82.60;;;;;;5021235;28;20029;-58
2022/11/28 04:18:53;;;;;;;5.00;4.13;;;5.30;82.50;;;;;;5004912;28;20041;-58
2022/11/28 04:21:30;;;;;;;4.45;3.42;;;5.30;82.70;;;;;;5030982;28;20109;-58
2022/11/28 04:24:01;;;;;;;4.38;3.58;;;5.30;82.80;;;;;;5033491;28;20034;-58
2022/11/28 04:26:33;;;;;;;5.68;3.80;;;5.30;82.50;;;;;;5031339;28;20472;-58
2022/11/28 04:29:00;;;;;;;;;;;5.30;82.50;;;;;;5033058;28;20033;-58
2022/11/28 04:31:27;;;;;;;4.95;3.85;;;5.30;82.50;;;;;;5031774;28;19911;-58
2022/11/28 04:33:58;;;;;;;3.88;3.20;;;5.30;82.40;;;;;;5032753;28;20026;-57
2022/11/28 04:36:26;;;;;;;3.78;3.30;;;5.30;82.30;;;;;;5031893;28;20069;-58
2022/11/28 04:38:55;;;;;;;5.15;3.70;;;5.30;82.10;;;;;;5031494;28;20029;-58
2022/11/28 04:41:44;;;;;;;4.05;3.38;;;5.30;82.10;;;;;;5030354;28;20538;-57
2022/11/28 04:44:28;;;;;;;3.13;2.83;;;5.30;82.20;;;;;;5031863;28;20045;-57
2022/11/28 04:46:55;;;;;;;3.38;2.95;;;5.40;82.80;;;;;;5031138;28;20049;-58
2022/11/28 04:49:23;;;;;;;3.22;2.90;;;5.40;81.90;;;;;;5031763;28;20080;-57
2022/11/28 04:52:16;;;;;;;4.53;3.28;;;5.50;81.60;;;;;;5032777;28;20503;-58
2022/11/28 04:55:09;;;;;;;3.65;3.05;;;5.50;81.40;;;;;;5025693;28;20017;-57
2022/11/28 04:57:47;;;;;;;3.15;2.63;;;5.50;81.10;;;;;;5031562;28;20477;-57
2022/11/28 05:00:16;;;;;;;2.95;2.72;;;5.50;81.20;;;;;;5031614;28;20527;-58
2022/11/28 05:02:44;;;;;;;4.50;3.45;;;5.60;81.20;;;;;;5032195;28;20025;-58
2022/11/28 05:05:17;;;;;;;4.40;3.08;;;5.60;81.10;;;;;;5032277;28;20029;-58
2022/11/28 05:07:44;;;;;;;4.47;3.22;;;5.60;81.10;;;;;;5031046;28;20471;-57
2022/11/28 05:10:11;;;;;;;3.40;3.00;;;5.60;81.20;;;;;;5032044;28;20029;-58
2022/11/28 05:12:37;;;;;;;4.80;3.70;;;5.60;81.20;;;;;;5032435;28;20102;-57
2022/11/28 05:15:03;;;;;;;4.38;3.40;;;5.60;81.10;;;;;;5031718;28;20116;-58
2022/11/28 05:17:29;;;;;;;4.47;3.38;;;5.50;81.20;;;;;;5032123;28;20037;-58
2022/11/28 05:19:54;;;;;;;6.00;4.20;;;5.50;81.30;;;;;;5031926;28;20021;-57
2022/11/28 05:22:20;;;;;;;4.95;4.03;;;5.40;81.40;;;;;;5032306;28;20021;-58
2022/11/28 05:24:46;;;;;;;3.78;3.35;;;5.30;81.60;;;;;;5031505;28;20021;-57
2022/11/28 05:27:11;;;;;;;4.95;3.55;;;5.30;82.00;;;;;;5032041;28;20022;-57
2022/11/28 05:29:42;;;;;;;4.30;3.47;;;5.30;82.10;;;;;;5031297;28;20017;-57
2022/11/28 05:32:11;;;;;;;4.65;3.55;;;5.30;81.90;;;;;;5032073;28;20016;-57
2022/11/28 05:34:36;;;;;;;3.55;3.25;;;5.30;82.10;;;;;;5032327;28;20499;-57
2022/11/28 05:37:03;;;;;;;4.18;3.25;;;5.30;82.20;;;;;;5030930;28;20076;-57
2022/11/28 05:39:29;;;;;;;4.05;3.33;;;5.30;82.20;;;;;;5028871;28;20504;-58
2022/11/28 05:41:55;;;;;;;4.07;3.60;;;5.30;82.20;;;;;;5032067;28;20060;-57
2022/11/28 05:44:20;;;;;;;4.88;3.60;;;5.40;82.10;;;;;;5032094;28;20472;-58
2022/11/28 05:46:46;;;;;;;4.20;3.45;;;5.40;82.30;;;;;;5031086;28;20096;-57
2022/11/28 05:49:13;;;;;;;4.15;3.20;;;5.40;82.30;;;;;;5031203;28;20021;-57
2022/11/28 05:51:38;;;;;;;4.75;3.63;;;5.40;82.00;;;;;;5036135;28;20030;-57
2022/11/28 05:54:04;;;;;;;6.18;4.28;;;5.50;82.10;;;;;;5035833;28;20036;-57
2022/11/28 05:56:30;;;;;;;3.88;3.25;;;5.50;82.10;;;;;;5034702;28;20025;-58
2022/11/28 05:58:56;;;;;;;3.63;3.30;;;5.50;82.00;;;;;;5034883;28;20024;-57
2022/11/28 06:01:25;;;;;;;4.00;3.60;;;5.60;82.20;;;;;;5033387;28;20113;-57
2022/11/28 06:03:56;;;;;;;3.97;3.20;;;5.60;82.00;;;;;;5033747;28;20014;-57
2022/11/28 06:06:23;;;;;;;4.60;3.42;;;5.70;82.00;;;;;;5032678;28;20041;-57
2022/11/28 06:08:51;;;;;;;3.88;3.10;;;5.70;81.90;;;;;;5033351;28;20060;-57
2022/11/28 06:11:18;;;;;;;4.00;3.45;;;5.70;82.00;;;;;;5033973;28;20104;-58
2022/11/28 06:13:45;;;;;;;4.43;3.20;;;5.70;82.00;;;;;;5033463;28;20109;-57
2022/11/28 06:16:13;;;;;;;4.53;3.40;;;5.70;82.00;;;;;;5035070;28;20029;-58
2022/11/28 06:18:39;;;;;;;4.63;3.40;;;5.70;82.00;;;;;;5034796;28;20397;-58
2022/11/28 06:21:07;;;;;;;4.03;3.17;;;5.70;82.00;;;;;;5032014;28;20847;-57
2022/11/28 06:23:33;;;;;;;3.83;3.20;;;5.70;82.20;;;;;;5017676;28;20112;-58
2022/11/28 06:26:05;;;;;;;3.97;2.90;;;5.70;82.10;;;;;;5034542;28;20501;-57
2022/11/28 06:28:30;;;;;;;;;;;5.70;82.20;;;;;;5033243;28;20025;-56
2022/11/28 06:30:56;;;;;;;4.88;3.60;;;5.70;82.00;;;;;;5034896;28;19920;-57
2022/11/28 06:33:21;;;;;;;4.32;3.47;;;5.70;82.10;;;;;;5031478;28;20029;-57
2022/11/28 06:35:47;;;;;;;3.72;3.00;;;5.70;82.10;;;;;;5034500;28;21458;-58
2022/11/28 06:38:13;;;;;;;4.90;3.67;;;5.70;82.20;;;;;;5015837;28;20025;-57
2022/11/28 06:40:39;;;;;;;4.45;3.33;;;5.80;82.20;;;;;;5034314;28;20029;-58
2022/11/28 06:43:05;;;;;;;4.88;3.50;;;5.80;82.20;;;;;;5015385;28;20029;-57
2022/11/28 06:45:32;;;;;;;3.55;2.83;;;5.80;82.20;;;;;;5025715;28;20556;-56
2022/11/28 06:47:58;;;;;;;5.45;3.50;;;5.80;82.20;;;;;;5029891;28;20062;-57
2022/11/28 06:50:24;;;;;;;5.18;4.05;;;5.90;82.10;;;;;;5028195;28;20021;-57
2022/11/28 06:52:50;;;;;;;4.53;3.25;;;5.90;82.00;;;;;;5032216;28;20025;-57
2022/11/28 06:55:16;;;;;;;3.78;3.00;;;5.90;82.10;;;;;;5032289;28;20376;-57
2022/11/28 06:57:42;;;;;;;3.65;2.90;;;6.00;82.20;;;;;;5026611;28;20033;-56
2022/11/28 07:00:08;;;;;;;4.72;3.45;;;6.10;82.20;;;;;;5029222;28;20037;-57
2022/11/28 07:02:34;;;;;;;4.43;3.80;;;6.10;81.90;;;;;;5032281;28;20108;-57
2022/11/28 07:05:00;;;;;;;6.45;4.40;;;6.20;81.70;;;;;;5031808;28;20374;-57
2022/11/28 07:07:26;;;;;;;5.80;3.92;;;6.20;81.50;;;;;;5018542;28;20654;-56
2022/11/28 07:09:52;;;;;;;5.18;3.50;;;6.20;81.40;;;;;;5025933;28;20404;-56
2022/11/28 07:12:18;;;;;;;5.35;3.67;;;6.20;81.40;;;;;;5020611;28;20040;-57
2022/11/28 07:14:44;;;;;;;4.88;3.63;;;6.20;81.50;;;;;;5016069;28;20034;-58
2022/11/28 07:17:09;;;;;;;6.50;4.30;;;6.20;81.60;;;;;;4998808;28;20052;-58
2022/11/28 07:19:36;;;;;;;6.22;4.60;;;6.20;82.20;;;;;;5018743;28;20091;-57
2022/11/28 07:22:02;;;;;;;6.13;4.07;;;6.10;81.60;;;;;;5022222;28;20365;-57
2022/11/28 07:24:29;;;;;;;4.82;3.90;;;6.10;81.80;;;;;;5019468;28;20036;-57
2022/11/28 07:26:55;;;;;;;7.68;4.88;;;6.10;81.80;;;;;;5017864;28;20030;-58
2022/11/28 07:29:23;;;;;;;4.88;3.78;;;6.10;81.80;;;;;;5019679;28;20083;-58
2022/11/28 07:31:52;;;;;;;5.38;3.67;;;6.20;81.70;;;;;;5020205;28;20025;-57
2022/11/28 07:34:17;;;;;;;5.65;4.10;;;6.20;81.80;;;;;;5016751;28;20021;-56
2022/11/28 07:36:46;;;;;;;5.10;3.55;;;6.30;81.70;;;;;;5023207;28;20115;-57
2022/11/28 07:39:16;;;;;;;4.70;3.22;;;6.40;81.60;;;;;;5017593;28;20052;-57
2022/11/28 07:41:44;;;;;;;5.80;4.10;;;6.50;81.30;;;;;;5013076;28;20029;-59
2022/11/28 07:44:16;;;;;;;5.70;3.70;;;6.50;81.30;;;;;;5020977;28;20041;-58
2022/11/28 07:46:43;;;;;;;5.07;3.45;;;6.50;81.00;;;;;;5014383;28;20037;-57
2022/11/28 07:49:10;;;;;;;4.80;3.45;;;6.60;80.80;;;;;;5021241;28;20034;-57
2022/11/28 07:51:38;;;;;;;4.50;3.25;;;6.60;80.70;;;;;;5019561;28;20026;-58
2022/11/28 07:54:07;;;;;;;6.13;4.13;;;6.70;80.70;;;;;;5013668;28;20037;-57
2022/11/28 07:56:35;;;;;;;5.30;3.80;;;6.80;80.40;;;;;;5008572;28;20784;-59
2022/11/28 07:59:03;;;;;;;3.35;2.80;;;6.80;80.30;;;;;;5002842;28;20370;-58
2022/11/28 08:01:34;;;;;;;4.90;3.33;;;6.80;80.10;;;;;;4997061;28;20033;-58
2022/11/28 08:04:00;;;;;;;5.90;3.95;;;6.90;80.10;;;;;;5008711;28;20583;-58
2022/11/28 08:06:29;;;;;;;5.93;3.78;;;6.90;80.00;;;;;;5006302;28;20041;-59
2022/11/28 08:08:59;;;;;;;5.72;3.83;;;6.90;79.90;;;;;;5004246;28;20763;-58
2022/11/28 08:11:27;;;;;;;5.43;3.78;;;6.90;79.70;;;;;;5003110;28;20036;-57
2022/11/28 08:13:52;;;;;;;4.35;3.40;;;7.00;79.70;;;;;;5005774;28;20022;-58
2022/11/28 08:16:21;;;;;;;3.80;3.17;;;7.00;79.50;;;;;;5001599;28;20041;-57
2022/11/28 08:18:48;;;;;;;4.13;2.88;;;7.00;79.60;;;;;;4998231;28;20062;-56
2022/11/28 08:21:23;;;;;;;4.03;2.90;;;7.00;79.60;;;;;;4997834;28;20550;-58
2022/11/28 08:23:50;;;;;;;3.92;2.90;;;7.10;79.70;;;;;;5004985;28;20037;-58
2022/11/28 08:26:17;;;;;;;4.32;3.35;;;7.10;79.60;;;;;;5007387;28;20060;-57
2022/11/28 08:28:44;;;;;;;3.83;3.08;;;7.10;79.50;;;;;;5007985;28;20764;-57
2022/11/28 08:31:16;;;;;;;4.20;3.40;;;7.20;79.40;;;;;;5004577;28;20112;-58
2022/11/28 08:33:43;;;;;;;5.70;3.97;;;7.20;79.30;;;;;;5001494;28;20104;-58
2022/11/28 08:36:13;;;;;;;4.15;3.38;;;7.20;79.30;;;;;;4995895;28;20052;-57
2022/11/28 08:38:40;;;;;;;4.47;3.50;;;7.20;79.00;;;;;;5002204;28;21067;-56
2022/11/28 08:41:09;;;;;;;4.18;3.05;;;7.30;79.00;;;;;;5005971;28;20040;-56
2022/11/28 08:43:37;;;;;;;5.45;3.40;;;7.30;79.00;;;;;;4999994;28;20030;-59
2022/11/28 08:46:04;;;;;;;4.75;3.42;;;7.30;79.10;;;;;;4999813;28;20088;-57
2022/11/28 08:48:31;;;;;;;4.70;3.40;;;7.30;78.80;;;;;;4994431;28;20465;-56
2022/11/28 08:50:57;;;;;;;6.07;4.35;;;7.30;78.90;;;;;;4994285;28;20033;-57
2022/11/28 08:53:23;;;;;;;5.78;3.95;;;7.30;79.00;;;;;;4993862;28;20076;-57
2022/11/28 08:55:49;;;;;;;4.85;3.80;;;7.30;78.60;;;;;;4994273;28;21936;-58
2022/11/28 08:58:15;;;;;;;4.60;3.50;;;7.30;78.80;;;;;;4993254;28;20053;-58
2022/11/28 09:00:41;;;;;;;4.57;3.65;;;7.30;78.80;;;;;;4997847;28;20037;-57
2022/11/28 09:03:15;;;;;;;4.70;3.25;;;7.30;78.80;;;;;;5008076;28;20139;-58
2022/11/28 09:05:41;;;;;;;;;;;7.40;78.70;;;;;;4996915;28;20174;-58
2022/11/28 09:08:08;;;;;;;5.28;3.63;;;7.40;78.60;;;;;;4994629;28;19924;-58
2022/11/28 09:10:38;;;;;;;5.80;4.45;;;7.40;78.70;;;;;;4998767;28;20022;-56
2022/11/28 09:13:04;;;;;;;6.90;4.70;;;7.40;78.50;;;;;;5006787;28;20476;-56
2022/11/28 09:15:31;;;;;;;5.35;4.20;;;7.40;78.20;;;;;;5002068;28;20459;-57
2022/11/28 09:18:00;;;;;;;6.03;4.28;;;7.40;78.50;;;;;;4990455;28;20032;-56
2022/11/28 09:20:26;;;;;;;5.47;3.67;;;7.30;78.50;;;;;;4995163;28;20033;-58
2022/11/28 09:22:52;;;;;;;5.13;3.83;;;7.30;78.60;;;;;;4999541;28;20091;-57
2022/11/28 09:25:18;;;;;;;5.05;4.07;;;7.30;78.90;;;;;;4986570;28;20037;-58
2022/11/28 09:27:44;;;;;;;4.55;3.83;;;7.30;78.60;;;;;;5001239;28;20032;-57
2022/11/28 09:30:10;;;;;;;6.05;4.55;;;7.30;78.70;;;;;;4988832;28;22257;-59
2022/11/28 09:32:39;;;;;;;5.25;3.95;;;7.30;78.30;;;;;;4991328;28;20028;-59
2022/11/28 09:35:07;;;;;;;4.05;3.65;;;7.30;78.30;;;;;;4992638;28;20022;-57
2022/11/28 09:37:33;;;;;;;4.05;3.40;;;7.30;78.30;;;;;;4991176;28;20046;-57
2022/11/28 09:39:59;;;;;;;5.25;3.83;;;7.30;78.40;;;;;;4997975;28;20049;-59
2022/11/28 09:42:35;;;;;;;5.75;3.97;;;7.40;78.20;;;;;;4996814;28;20042;-57
2022/11/28 09:45:13;;;;;;;5.28;3.78;;;7.40;78.20;;;;;;4994699;28;20033;-58
2022/11/28 09:47:45;;;;;;;4.65;3.70;;;7.40;77.90;;;;;;4994210;28;20189;-57
2022/11/28 09:50:19;;;;;;;4.47;3.75;;;7.40;77.70;;;;;;4991792;28;20524;-59
2022/11/28 09:53:17;;;;;;;4.78;3.55;;;7.40;77.80;;;;;;4995251;28;20032;-57
2022/11/28 09:55:54;;;;;;;5.18;3.10;;;7.40;77.90;;;;;;4989888;28;20480;-58
2022/11/28 09:58:38;;;;;;;5.35;3.55;;;7.40;78.00;;;;;;4989277;28;20041;-58
2022/11/28 10:01:25;;;;;;;4.45;3.00;;;7.40;78.00;;;;;;4990250;28;20048;-57
2022/11/28 10:04:13;;;;;;;4.55;3.55;;;7.50;77.90;;;;;;4991213;28;20041;-58
2022/11/28 10:07:17;;;;;;;3.45;2.97;;;7.50;77.80;;;;;;4989378;28;20033;-57
2022/11/28 10:10:20;;;;;;;5.25;3.58;;;7.60;77.40;;;;;;4989412;28;20025;-58
2022/11/28 10:12:56;;;;;;;3.83;2.72;;;7.60;77.40;;;;;;4994707;28;20029;-58
2022/11/28 10:15:50;;;;;;;3.33;2.95;;;7.60;77.30;;;;;;4988240;28;20033;-58
2022/11/28 10:18:18;;;;;;;4.90;3.13;;;7.70;77.20;;;;;;4986116;28;20026;-58
2022/11/28 10:20:47;;;;;;;3.70;2.88;;;7.70;76.90;;;;;;4992564;28;20025;-59
2022/11/28 10:23:24;;;;;;;4.47;3.35;;;7.80;77.00;;;;;;4991818;28;20390;-57
2022/11/28 10:25:55;;;;;;;3.88;3.20;;;7.80;76.60;;;;;;4989068;28;20034;-58
2022/11/28 10:28:34;;;;;;;5.03;3.20;;;7.80;76.50;;;;;;4989333;28;20026;-57
2022/11/28 10:31:24;;;;;;;3.95;2.80;;;7.80;76.40;;;;;;4994108;28;20026;-57
2022/11/28 10:34:01;;;;;;;4.57;3.20;;;7.80;76.40;;;;;;4985067;28;20467;-57
2022/11/28 10:36:31;;;;;;;3.67;3.10;;;7.80;76.30;;;;;;4992775;28;20053;-58
2022/11/28 10:39:01;;;;;;;4.15;3.40;;;7.70;76.20;;;;;;4992633;28;20037;-58
2022/11/28 10:42:10;;;;;;;4.80;3.42;;;7.80;76.30;;;;;;4993054;28;20887;-57
2022/11/28 10:44:43;;;;;;;4.85;3.90;;;7.70;76.00;;;;;;4997277;28;20029;-57
2022/11/28 10:47:28;;;;;;;5.60;3.97;;;7.70;76.10;;;;;;4995493;28;20034;-57
2022/11/28 10:50:26;;;;;;;4.80;3.90;;;7.70;76.20;;;;;;5000276;28;20298;-58
2022/11/28 10:53:00;;;;;;;4.50;3.38;;;7.70;76.10;;;;;;5001940;28;20022;-58
2022/11/28 10:55:25;;;;;;;4.75;3.60;;;7.70;76.10;;;;;;4994432;28;20091;-58
2022/11/28 10:58:20;;;;;;;3.72;3.10;;;7.70;76.20;;;;;;5000471;28;20041;-57
2022/11/28 11:00:48;;;;;;;4.28;3.40;;;7.70;76.30;;;;;;4994445;28;20044;-59
2022/11/28 11:03:17;;;;;;;3.58;3.25;;;7.80;76.40;;;;;;5000347;28;20036;-56
2022/11/28 11:05:44;;;;;;;4.45;3.30;;;7.80;76.30;;;;;;5001854;28;20025;-58
2022/11/28 11:08:24;;;;;;;3.72;2.90;;;7.80;76.10;;;;;;4989643;28;20061;-57
2022/11/28 11:10:51;;;;;;;3.13;2.83;;;7.80;76.10;;;;;;4999578;28;20025;-58
2022/11/28 11:13:22;;;;;;;4.60;3.80;;;7.80;76.20;;;;;;4981346;28;20428;-58
2022/11/28 11:16:12;;;;;;;3.85;3.28;;;7.80;76.30;;;;;;5003267;28;20026;-58
2022/11/28 11:18:53;;;;;;;4.45;3.50;;;7.90;76.10;;;;;;4998441;28;20059;-58
2022/11/28 11:21:24;;;;;;;4.05;3.15;;;7.80;76.00;;;;;;5011164;28;20033;-58
2022/11/28 11:24:17;;;;;;;4.28;3.20;;;7.90;76.10;;;;;;5006719;28;20048;-59
2022/11/28 11:26:45;;;;;;;4.18;3.30;;;7.90;76.10;;;;;;4995252;28;20055;-59
2022/11/28 11:29:22;;;;;;;4.00;3.25;;;7.90;76.00;;;;;;5002736;28;20029;-57
2022/11/28 11:31:52;;;;;;;3.90;3.00;;;7.90;76.10;;;;;;5000125;28;20129;-57
2022/11/28 11:34:21;;;;;;;3.78;3.08;;;7.90;76.10;;;;;;5007456;28;20033;-58
2022/11/28 11:36:47;;;;;;;5.13;3.60;;;7.90;76.30;;;;;;5004832;28;20045;-58
2022/11/28 11:39:13;;;;;;;3.85;3.08;;;7.90;76.20;;;;;;4997695;28;20037;-58
2022/11/28 11:41:42;;;;;;;4.15;3.38;;;8.00;76.30;;;;;;4998053;28;20839;-58
2022/11/28 11:44:13;;;;;;;3.38;2.90;;;8.00;76.20;;;;;;5000364;28;20439;-58
2022/11/28 11:46:51;;;;;;;5.43;3.97;;;8.00;76.00;;;;;;5003777;28;20971;-58
2022/11/28 11:49:28;;;;;;;4.03;3.10;;;8.00;76.00;;;;;;5002311;28;20025;-57
2022/11/28 11:52:01;;;;;;;3.67;3.10;;;8.00;76.00;;;;;;5003314;28;20483;-58
2022/11/28 11:54:27;;;;;;;4.25;3.53;;;7.90;76.10;;;;;;4998924;28;24476;-58
2022/11/28 11:56:56;;;;;;;3.92;3.22;;;8.00;76.20;;;;;;5010112;28;20041;-57
2022/11/28 11:59:28;;;;;;;3.45;2.95;;;7.90;76.30;;;;;;5001314;28;20481;-57
2022/11/28 12:02:07;;;;;;;4.13;3.10;;;8.00;76.30;;;;;;4988270;28;20037;-57
2022/11/28 12:04:43;;;;;;;3.85;3.20;;;7.90;76.20;;;;;;5006397;28;20037;-59
2022/11/28 12:07:23;;;;;;;4.45;3.33;;;7.90;76.30;;;;;;5005134;28;20029;-57
2022/11/28 12:09:51;;;;;;;4.65;3.20;;;8.00;76.40;;;;;;5003253;28;20030;-58
2022/11/28 12:12:23;;;;;;;4.95;3.58;;;8.00;76.30;;;;;;4994827;28;20029;-58
2022/11/28 12:14:49;;;;;;;4.30;3.15;;;7.90;76.80;;;;;;4991777;28;20026;-59
2022/11/28 12:17:33;;;;;;;4.22;2.70;;;7.90;76.40;;;;;;5001814;28;20107;-58
2022/11/28 12:20:23;;;;;;;3.45;2.67;;;7.90;76.50;;;;;;5000738;28;20045;-59
2022/11/28 12:23:19;;;;;;;3.60;2.88;;;7.90;76.60;;;;;;4987384;28;20136;-58
2022/11/28 12:25:45;;;;;;;5.07;3.20;;;7.90;76.50;;;;;;4998079;28;20385;-58
2022/11/28 12:28:38;;;;;;;4.13;3.20;;;7.90;76.60;;;;;;4995305;28;20053;-57
2022/11/28 12:31:28;;;;;;;3.13;2.80;;;8.00;76.70;;;;;;4988496;28;20059;-58
2022/11/28 12:33:57;;;;;;;3.78;3.05;;;8.00;76.70;;;;;;4988070;28;20497;-58
2022/11/28 12:36:35;;;;;;;3.58;2.83;;;8.00;76.80;;;;;;4993069;28;20049;-58
2022/11/28 12:39:20;;;;;;;4.00;2.83;;;8.00;76.80;;;;;;4983025;28;20491;-57
2022/11/28 12:42:16;;;;;;;3.78;2.85;;;8.00;76.80;;;;;;4994257;28;20035;-58
2022/11/28 12:44:53;;;;;;;3.03;2.67;;;8.00;76.90;;;;;;4990601;28;20029;-57
2022/11/28 12:47:30;;;;;;;4.47;2.97;;;8.00;77.00;;;;;;4994855;28;20034;-59
2022/11/28 12:50:19;;;;;;;3.65;3.10;;;8.00;77.00;;;;;;4989827;28;20503;-57
2022/11/28 12:52:57;;;;;;;3.50;3.20;;;8.00;77.00;;;;;;4995916;28;20032;-55
2022/11/28 12:55:32;;;;;;;3.22;2.92;;;8.00;76.90;;;;;;4985721;28;20033;-59
2022/11/28 12:58:34;;;;;;;3.70;2.80;;;8.00;77.00;;;;;;4987056;28;20693;-57
2022/11/28 13:01:20;;;;;;;4.10;2.67;;;8.00;77.00;;;;;;4993691;28;20597;-55
2022/11/28 13:04:18;;;;;;;3.15;2.63;;;8.00;77.20;;;;;;4981253;28;21010;-58
2022/11/28 13:07:14;;;;;;;3.38;2.50;;;8.00;77.10;;;;;;4986531;28;20025;-56
2022/11/28 13:10:03;;;;;;;4.20;3.20;;;8.00;77.20;;;;;;4992693;28;20160;-55
2022/11/28 13:13:11;;;;;;;3.45;2.70;;;8.00;77.40;;;;;;4985138;28;20532;-56
2022/11/28 13:15:47;;;;;;;3.60;2.83;;;8.00;77.50;;;;;;4968148;28;20124;-56
2022/11/28 13:18:12;;;;;;;3.13;2.67;;;8.00;77.50;;;;;;4995620;28;20068;-57
2022/11/28 13:20:54;;;;;;;3.95;3.25;;;8.10;77.50;;;;;;5001802;28;20144;-57
2022/11/28 13:23:44;;;;;;;4.60;3.17;;;8.00;77.40;;;;;;5002102;28;20040;-57
2022/11/28 13:26:26;;;;;;;3.03;2.70;;;8.00;77.50;;;;;;4988520;28;20033;-57
2022/11/28 13:29:06;;;;;;;3.00;2.70;;;8.00;77.60;;;;;;4993382;28;20018;-57